Time;durP1;ratioP1;P1;durP2;ratioP2;P2;SDS_P1;SDS_P2;PMS_P1;PMS_P2;Temp;Humidity;BMP_temperature;BMP_pressure;BME280_temperature;BME280_humidity;BME280_pressure;Samples;Min_cycle;Max_cycle;Signal;HPM_P1;HPM_P2
2023/01/02 00:02:21;;;;;;;;;;;13.90;99.90;;;;;;5099630;28;20029;-80
2023/01/02 00:04:46;;;;;;;;;;;13.90;99.90;;;;;;5096586;28;20285;-81
2023/01/02 00:07:12;;;;;;;;;;;13.90;99.90;;;;;;5076933;28;19912;-80
2023/01/02 00:09:37;;;;;;;;;;;13.90;99.90;;;;;;5080444;28;19969;-80
2023/01/02 00:12:03;;;;;;;;;;;13.90;99.90;;;;;;5080048;28;20015;-81
2023/01/02 00:14:28;;;;;;;;;;;13.90;99.90;;;;;;5078145;28;19975;-83
2023/01/02 00:16:54;;;;;;;;;;;13.90;99.90;;;;;;5100444;28;19942;-83
2023/01/02 00:19:19;;;;;;;;;;;14.00;99.90;;;;;;5081424;28;19908;-82
2023/01/02 00:21:45;;;;;;;;;;;13.90;99.90;;;;;;5081058;28;19916;-84
2023/01/02 00:24:10;;;;;;;;;;;13.90;99.90;;;;;;5081432;28;20563;-83
2023/01/02 00:26:36;;;;;;;;;;;13.90;99.90;;;;;;5081035;28;19916;-81
2023/01/02 00:29:01;;;;;;;;;;;14.00;99.90;;;;;;5099156;28;19915;-80
2023/01/02 00:31:27;;;;;;;;;;;14.10;99.90;;;;;;5080466;28;20452;-81
2023/01/02 00:33:52;;;;;;;;;;;14.20;99.90;;;;;;5079536;28;19999;-81
2023/01/02 00:36:17;;;;;;;;;;;14.30;99.90;;;;;;5079283;28;19909;-81
2023/01/02 00:38:43;;;;;;;;;;;14.30;99.90;;;;;;5079070;28;20015;-81
2023/01/02 00:41:09;;;;;;;;;;;14.30;99.90;;;;;;5078979;28;19912;-80
2023/01/02 00:43:34;;;;;;;;;;;14.40;99.90;;;;;;5079097;28;19908;-81
2023/01/02 00:46:00;;;;;;;;;;;14.40;99.90;;;;;;5097807;28;19908;-80
2023/01/02 00:48:25;;;;;;;;;;;14.50;99.90;;;;;;5097154;28;20324;-81
2023/01/02 00:50:51;;;;;;;;;;;14.50;99.90;;;;;;5079143;28;19989;-80
2023/01/02 00:53:16;;;;;;;;;;;14.50;99.90;;;;;;5098478;28;19919;-81
2023/01/02 00:55:45;;;;;;;;;;;14.60;99.90;;;;;;5079706;28;20027;-82
2023/01/02 00:58:11;;;;;;;;;;;14.60;99.90;;;;;;5080124;28;19940;-81
2023/01/02 01:00:37;;;;;;;;;;;14.60;99.90;;;;;;5098622;28;19908;-80
2023/01/02 01:03:02;;;;;;;;;;;14.60;99.90;;;;;;5079189;28;19908;-81
2023/01/02 01:05:28;;;;;;;;;;;14.60;99.90;;;;;;5099008;28;20007;-83
2023/01/02 01:07:54;;;;;;;;;;;14.60;99.90;;;;;;5079740;28;19908;-82
2023/01/02 01:10:21;;;;;;;;;;;14.60;99.90;;;;;;5080523;28;20007;-79
2023/01/02 01:12:46;;;;;;;;;;;14.70;99.90;;;;;;5101718;28;19915;-79
2023/01/02 01:15:11;;;;;;;;;;;14.70;99.90;;;;;;5081905;28;19998;-82
2023/01/02 01:17:37;;;;;;;;;;;14.80;99.90;;;;;;5096283;28;19912;-81
2023/01/02 01:20:03;;;;;;;;;;;14.70;99.90;;;;;;5096497;28;19916;-81
2023/01/02 01:22:28;;;;;;;;;;;14.80;99.90;;;;;;5077474;28;19913;-81
2023/01/02 01:24:54;;;;;;;;;;;14.80;99.90;;;;;;5078110;28;19908;-81
2023/01/02 01:27:19;;;;;;;;;;;14.90;99.90;;;;;;5077265;28;19907;-82
2023/01/02 01:29:45;;;;;;;;;;;14.80;99.90;;;;;;5077930;28;20007;-81
2023/01/02 01:32:10;;;;;;;;;;;14.90;99.90;;;;;;5095795;28;19912;-81
2023/01/02 01:34:36;;;;;;;;;;;14.90;99.90;;;;;;5095857;28;19947;-81
2023/01/02 01:37:01;;;;;;;;;;;14.90;99.90;;;;;;5077476;28;19909;-81
2023/01/02 01:39:27;;;;;;;;;;;14.90;99.90;;;;;;5078199;28;19916;-83
2023/01/02 01:41:52;;;;;;;;;;;14.90;99.90;;;;;;5097127;28;19916;-81
2023/01/02 01:44:36;;;;;;;;;;;14.90;99.90;;;;;;5078026;28;19908;-81
2023/01/02 01:47:02;;;;;;;;;;;14.90;99.90;;;;;;5096953;28;19908;-80
2023/01/02 01:49:28;;;;;;;;;;;14.90;99.90;;;;;;5096502;28;19915;-82
2023/01/02 01:52:02;;;;;;;;;;;14.90;99.90;;;;;;5078198;28;19908;-83
2023/01/02 01:54:30;;;;;;;;;;;14.90;99.90;;;;;;5078706;28;19908;-83
2023/01/02 01:56:58;;;;;;;;;;;14.90;99.90;;;;;;5077733;28;20381;-79
2023/01/02 01:59:24;;;;;;;;;;;14.90;99.90;;;;;;5097086;28;19912;-79
2023/01/02 02:01:50;;;;;;;;;;;14.90;99.90;;;;;;5078733;28;19918;-79
2023/01/02 02:04:16;;;;;;;;;;;14.90;99.90;;;;;;5097212;28;20273;-79
2023/01/02 02:06:42;;;;;;;;;;;14.90;99.90;;;;;;5078688;28;19955;-79
2023/01/02 02:09:15;;;;;;;;;;;14.80;99.90;;;;;;5078496;28;19912;-79
2023/01/02 02:11:42;;;;;;;;;;;14.90;99.90;;;;;;5078494;28;19912;-80
2023/01/02 02:14:07;;;;;;;;;;;14.90;99.90;;;;;;5079669;28;19908;-79
2023/01/02 02:16:33;;;;;;;;;;;14.90;99.90;;;;;;5079608;28;20327;-79
2023/01/02 02:18:58;;;;;;;;;;;14.90;99.90;;;;;;5099578;28;19915;-80
2023/01/02 02:21:26;;;;;;;;;;;14.90;99.90;;;;;;5079638;28;19912;-79
2023/01/02 02:24:01;;;;;;;;;;;14.90;99.90;;;;;;5079610;28;19940;-80
2023/01/02 02:26:45;;;;;;;;;;;14.90;99.90;;;;;;5079262;28;20005;-80
2023/01/02 02:29:26;;;;;;;;;;;14.90;99.90;;;;;;5097785;28;19991;-80
2023/01/02 02:32:21;;;;;;;;;;;14.90;99.90;;;;;;5079614;28;20010;-82
2023/01/02 02:34:52;;;;;;;;;;;14.80;99.90;;;;;;5022540;28;20517;-81
2023/01/02 02:37:30;;;;;;;;;;;14.80;99.90;;;;;;5095195;28;19912;-81
2023/01/02 02:40:18;;;;;;;;;;;14.80;99.90;;;;;;5094256;28;20289;-82
2023/01/02 02:42:43;;;;;;;;;;;14.80;99.90;;;;;;5094761;28;19968;-80
2023/01/02 02:45:18;;;;;;;;;;;14.70;99.90;;;;;;5076280;28;19912;-79
2023/01/02 02:47:49;;;;;;;;;;;14.60;99.90;;;;;;5076092;28;19908;-81
2023/01/02 02:50:29;;;;;;;;;;;14.60;99.90;;;;;;5076940;28;20298;-81
2023/01/02 02:53:18;;;;;;;;;;;14.60;99.90;;;;;;5076299;28;19915;-81
2023/01/02 02:55:46;;;;;;;;;;;14.60;99.90;;;;;;5065565;28;20335;-80
2023/01/02 02:58:12;;;;;;;;;;;14.60;99.90;;;;;;5076096;28;20274;-82
2023/01/02 03:00:38;;;;;;;;;;;14.50;99.90;;;;;;5075423;28;19908;-80
2023/01/02 03:03:13;;;;;;;;;;;14.50;99.90;;;;;;5093466;28;19935;-81
2023/01/02 03:05:42;;;;;;;;;;;14.50;99.90;;;;;;5075859;28;20003;-80
2023/01/02 03:08:15;;;;;;;;;;;14.50;99.90;;;;;;5075425;28;20376;-81
2023/01/02 03:10:46;;;;;;;;;;;14.50;99.90;;;;;;5075658;28;19912;-81
2023/01/02 03:13:20;;;;;;;;;;;14.60;99.90;;;;;;5075039;28;20393;-80
2023/01/02 03:15:56;;;;;;;;;;;14.60;99.90;;;;;;5075235;28;19908;-81
2023/01/02 03:18:31;;;;;;;;;;;14.60;99.90;;;;;;5075277;28;20386;-81
2023/01/02 03:21:00;;;;;;;;;;;14.70;99.90;;;;;;5075324;28;19908;-79
2023/01/02 03:23:26;;;;;;;;;;;14.70;99.90;;;;;;5075581;28;20321;-81
2023/01/02 03:25:52;;;;;;;;;;;14.80;99.90;;;;;;5075098;28;20006;-82
2023/01/02 03:28:19;;;;;;;;;;;14.80;99.90;;;;;;5075884;28;20535;-80
2023/01/02 03:30:47;;;;;;;;;;;14.80;99.90;;;;;;5075469;28;19947;-81
2023/01/02 03:33:15;;;;;;;;;;;14.80;99.90;;;;;;5075025;28;19952;-80
2023/01/02 03:35:43;;;;;;;;;;;14.80;99.90;;;;;;5075455;28;20388;-79
2023/01/02 03:38:13;;;;;;;;;;;14.80;99.90;;;;;;5074976;28;19916;-80
2023/01/02 03:40:40;;;;;;;;;;;14.80;99.90;;;;;;5132876;22;19978;-80
2023/01/02 03:43:09;;;;;;;;;;;14.80;99.90;;;;;;5072160;28;19926;-80
2023/01/02 03:45:47;;;;;;;;;;;14.70;99.90;;;;;;5072044;28;20336;-79
2023/01/02 03:48:13;;;;;;;;;;;14.80;99.90;;;;;;5071360;28;19912;-78
2023/01/02 03:50:47;;;;;;;;;;;14.80;99.90;;;;;;5074466;28;20446;-80
2023/01/02 03:53:12;;;;;;;;;;;14.70;99.90;;;;;;5076310;28;19908;-79
2023/01/02 03:55:39;;;;;;;;;;;14.80;99.90;;;;;;5075123;28;19955;-79
2023/01/02 03:58:13;;;;;;;;;;;14.70;99.90;;;;;;5076342;28;19916;-78
2023/01/02 04:00:45;;;;;;;;;;;14.80;99.90;;;;;;5076118;28;19909;-78
2023/01/02 04:03:15;;;;;;;;;;;14.80;99.90;;;;;;5076028;28;19912;-78
2023/01/02 04:05:43;;;;;;;;;;;14.80;99.90;;;;;;5075886;28;19922;-79
2023/01/02 04:08:27;;;;;;;;;;;14.80;99.90;;;;;;5076115;28;19914;-80
2023/01/02 04:10:54;;;;;;;;;;;14.80;99.90;;;;;;5074456;28;19909;-78
2023/01/02 04:13:22;;;;;;;;;;;14.70;99.90;;;;;;5074466;28;19908;-79
2023/01/02 04:15:48;;;;;;;;;;;14.50;99.90;;;;;;5076160;28;19999;-78
2023/01/02 04:18:18;;;;;;;;;;;14.40;99.90;;;;;;5075779;28;19915;-79
2023/01/02 04:20:46;;;;;;;;;;;14.30;99.90;;;;;;5075781;28;19955;-79
2023/01/02 04:23:11;;;;;;;;;;;14.20;99.90;;;;;;5074221;28;19909;-79
2023/01/02 04:25:41;;;;;;;;;;;14.10;99.90;;;;;;5075613;28;19931;-79
2023/01/02 04:28:21;;;;;;;;;;;14.00;99.90;;;;;;5075870;28;20023;-80
2023/01/02 04:30:49;;;;;;;;;;;14.00;99.90;;;;;;5075575;28;19919;-78
2023/01/02 04:33:15;;;;;;;;;;;13.90;99.90;;;;;;5074243;28;19914;-78
2023/01/02 04:35:41;;;;;;;;;;;13.90;99.90;;;;;;5075631;28;20003;-78
2023/01/02 04:38:07;;;;;;;;;;;14.00;99.90;;;;;;5074243;28;19920;-77
2023/01/02 04:40:36;;;;;;;;;;;14.00;99.90;;;;;;5075268;28;19924;-78
2023/01/02 04:43:03;;;;;;;;;;;14.00;99.90;;;;;;5073625;28;19913;-79
2023/01/02 04:45:29;;;;;;;;;;;14.10;99.90;;;;;;5075223;28;19908;-79
2023/01/02 04:47:54;;;;;;;;;;;14.10;99.90;;;;;;5074015;28;19916;-79
2023/01/02 04:50:20;;;;;;;;;;;14.20;99.90;;;;;;5075202;28;20021;-78
2023/01/02 04:52:45;;;;;;;;;;;14.20;99.90;;;;;;5074818;28;19928;-78
2023/01/02 04:55:10;;;;;;;;;;;14.30;99.90;;;;;;5075702;28;20380;-78
2023/01/02 04:57:36;;;;;;;;;;;14.30;99.90;;;;;;5073813;28;19913;-78
2023/01/02 05:00:03;;;;;;;;;;;14.40;99.90;;;;;;5075117;28;19909;-78
2023/01/02 05:02:28;;;;;;;;;;;14.40;99.90;;;;;;5072476;28;19919;-78
2023/01/02 05:04:53;;;;;;;;;;;14.50;99.90;;;;;;5073799;28;20352;-79
2023/01/02 05:07:19;;;;;;;;;;;14.40;99.90;;;;;;5074940;28;19912;-78
2023/01/02 05:09:44;;;;;;;;;;;14.40;99.90;;;;;;5074863;28;19995;-79
2023/01/02 05:12:10;;;;;;;;;;;14.50;99.90;;;;;;5074589;28;19909;-79
2023/01/02 05:14:35;;;;;;;;;;;14.40;99.90;;;;;;5074828;28;19912;-79
2023/01/02 05:17:01;;;;;;;;;;;14.50;99.90;;;;;;5073582;28;19909;-79
2023/01/02 05:19:26;;;;;;;;;;;14.50;99.90;;;;;;5074819;28;19999;-79
2023/01/02 05:24:36;;;;;;;;;;;14.50;99.90;;;;;;5074683;28;19920;-78
2023/01/02 05:27:01;;;;;;;;;;;14.60;99.90;;;;;;5073244;28;20273;-78
2023/01/02 05:29:28;;;;;;;;;;;14.60;99.90;;;;;;5073228;28;19908;-80
2023/01/02 05:31:53;;;;;;;;;;;14.60;99.90;;;;;;5074227;28;19916;-79
2023/01/02 05:34:18;;;;;;;;;;;14.70;99.90;;;;;;5074451;28;19909;-79
2023/01/02 05:36:44;;;;;;;;;;;14.70;99.90;;;;;;5074356;28;19908;-78
2023/01/02 05:39:13;;;;;;;;;;;14.70;99.90;;;;;;5074399;28;19908;-78
2023/01/02 05:41:40;;;;;;;;;;;14.70;99.90;;;;;;5072468;28;20018;-78
2023/01/02 05:44:07;;;;;;;;;;;14.80;99.90;;;;;;5074255;28;19909;-79
2023/01/02 05:46:33;;;;;;;;;;;14.70;99.90;;;;;;5072918;28;19908;-78
2023/01/02 05:48:58;;;;;;;;;;;14.80;99.90;;;;;;5072912;28;19909;-78
2023/01/02 05:51:24;;;;;;;;;;;14.80;99.90;;;;;;5073738;28;20014;-78
2023/01/02 05:53:52;;;;;;;;;;;14.80;99.90;;;;;;5074022;28;19931;-78
2023/01/02 05:56:17;;;;;;;;;;;14.80;99.90;;;;;;5073950;28;20362;-79
2023/01/02 05:58:44;;;;;;;;;;;14.70;99.90;;;;;;5073906;28;19915;-78
2023/01/02 06:01:14;;;;;;;;;;;14.70;99.90;;;;;;5073486;28;20075;-78
2023/01/02 06:03:42;;;;;;;;;;;14.70;99.90;;;;;;5073686;28;19908;-78
2023/01/02 06:06:09;;;;;;;;;;;14.70;99.90;;;;;;5074102;28;20350;-78
2023/01/02 06:08:35;;;;;;;;;;;14.70;99.90;;;;;;5072189;28;19908;-78
2023/01/02 06:11:01;;;;;;;;;;;14.70;99.90;;;;;;5073272;28;19908;-79
2023/01/02 06:13:30;;;;;;;;;;;14.70;99.90;;;;;;5073474;28;19920;-78
2023/01/02 06:15:56;;;;;;;;;;;14.70;99.90;;;;;;5073524;28;19920;-78
2023/01/02 06:18:22;;;;;;;;;;;14.90;99.90;;;;;;5073575;28;19918;-79
2023/01/02 06:20:47;;;;;;;;;;;14.90;99.90;;;;;;5072029;28;19974;-80
2023/01/02 06:23:13;;;;;;;;;;;14.90;99.90;;;;;;5073164;28;19908;-78
2023/01/02 06:25:38;;;;;;;;;;;14.90;99.90;;;;;;5073261;28;19956;-78
2023/01/02 06:28:04;;;;;;;;;;;14.90;99.90;;;;;;5073433;28;19909;-80
2023/01/02 06:30:29;;;;;;;;;;;14.90;99.90;;;;;;5073424;28;19908;-78
2023/01/02 06:32:55;;;;;;;;;;;14.90;99.90;;;;;;5072856;28;19909;-78
2023/01/02 06:35:21;;;;;;;;;;;15.00;99.90;;;;;;5073195;28;19959;-78
2023/01/02 06:37:46;;;;;;;;;;;14.90;99.90;;;;;;5073275;28;20396;-78
2023/01/02 06:40:12;;;;;;;;;;;14.90;99.90;;;;;;5071663;28;19939;-78
2023/01/02 06:42:37;;;;;;;;;;;14.90;99.90;;;;;;5072879;28;19966;-79
2023/01/02 06:45:03;;;;;;;;;;;14.90;99.90;;;;;;5071720;28;19909;-78
2023/01/02 06:47:28;;;;;;;;;;;15.00;99.90;;;;;;5073003;28;19909;-78
2023/01/02 06:49:54;;;;;;;;;;;14.90;99.90;;;;;;5072975;28;19909;-78
2023/01/02 06:52:19;;;;;;;;;;;14.90;99.90;;;;;;5072890;28;19916;-80
2023/01/02 06:54:45;;;;;;;;;;;15.00;99.90;;;;;;5071529;28;20269;-80
2023/01/02 06:57:10;;;;;;;;;;;14.90;99.90;;;;;;5072841;28;19909;-78
2023/01/02 06:59:36;;;;;;;;;;;14.90;99.90;;;;;;5072868;28;19919;-80
2023/01/02 07:02:01;;;;;;;;;;;14.70;99.90;;;;;;5071182;28;19912;-78
2023/01/02 07:04:27;;;;;;;;;;;14.60;99.90;;;;;;5072920;28;19962;-79
2023/01/02 07:06:52;;;;;;;;;;;14.60;99.90;;;;;;5072554;28;19944;-78
2023/01/02 07:09:17;;;;;;;;;;;14.40;99.90;;;;;;5072512;28;19988;-80
2023/01/02 07:11:43;;;;;;;;;;;14.30;99.90;;;;;;5072333;28;20269;-78
2023/01/02 07:14:08;;;;;;;;;;;14.10;99.90;;;;;;5072624;28;20021;-79
2023/01/02 07:16:34;;;;;;;;;;;13.90;99.90;;;;;;5072516;28;19914;-81
2023/01/02 07:18:59;;;;;;;;;;;13.70;99.90;;;;;;5072718;28;19908;-78
2023/01/02 07:21:25;;;;;;;;;;;13.50;99.90;;;;;;5072029;28;20354;-80
2023/01/02 07:23:50;;;;;;;;;;;13.40;99.90;;;;;;5072475;28;19909;-79
2023/01/02 07:26:16;;;;;;;;;;;13.30;99.90;;;;;;5072233;28;19974;-79
2023/01/02 07:28:41;;;;;;;;;;;13.10;99.90;;;;;;5072543;28;19931;-79
2023/01/02 07:31:10;;;;;;;;;;;13.10;99.90;;;;;;5072328;28;20002;-79
2023/01/02 07:33:35;;;;;;;;;;;13.00;99.90;;;;;;5071313;28;19908;-79
2023/01/02 07:36:02;;;;;;;;;;;12.90;99.90;;;;;;5071139;28;20008;-80
2023/01/02 07:38:28;;;;;;;;;;;12.80;99.90;;;;;;5071019;28;19908;-79
2023/01/02 07:40:54;;;;;;;;;;;12.80;99.90;;;;;;5071997;28;20007;-79
2023/01/02 07:43:19;;;;;;;;;;;12.70;99.90;;;;;;5071089;28;20362;-78
2023/01/02 07:45:45;;;;;;;;;;;12.70;99.90;;;;;;5072327;28;19947;-79
2023/01/02 07:48:10;;;;;;;;;;;12.70;99.90;;;;;;5072271;28;19954;-80
2023/01/02 07:50:36;;;;;;;;;;;12.70;99.90;;;;;;5072323;28;20281;-79
2023/01/02 07:53:01;;;;;;;;;;;12.60;99.90;;;;;;5071971;28;19915;-80
2023/01/02 07:55:27;;;;;;;;;;;12.50;99.90;;;;;;5072373;28;19908;-79
2023/01/02 07:57:52;;;;;;;;;;;12.50;99.90;;;;;;5070977;28;19915;-79
2023/01/02 08:00:18;;;;;;;;;;;12.50;99.90;;;;;;5072259;28;20000;-79
2023/01/02 08:02:43;;;;;;;;;;;12.50;99.90;;;;;;5070511;28;20349;-80
2023/01/02 08:05:09;;;;;;;;;;;12.50;99.90;;;;;;5072290;28;19909;-79
2023/01/02 08:07:34;;;;;;;;;;;12.50;99.90;;;;;;5072212;28;19909;-79
2023/01/02 08:10:00;;;;;;;;;;;12.40;99.90;;;;;;5072066;28;19912;-79
2023/01/02 08:12:26;;;;;;;;;;;12.40;99.90;;;;;;5070668;28;19919;-80
2023/01/02 08:14:51;;;;;;;;;;;12.30;99.90;;;;;;5072111;28;19915;-80
2023/01/02 08:17:16;;;;;;;;;;;12.30;99.90;;;;;;5072054;28;19908;-80
2023/01/02 08:19:42;;;;;;;;;;;12.30;99.90;;;;;;5071964;28;19908;-81
2023/01/02 08:22:07;;;;;;;;;;;12.30;99.90;;;;;;5071680;28;19978;-80
2023/01/02 08:24:33;;;;;;;;;;;12.30;99.90;;;;;;5070642;28;19909;-80
2023/01/02 08:26:58;;;;;;;;;;;12.20;99.90;;;;;;5071902;28;19908;-79
2023/01/02 08:29:24;;;;;;;;;;;12.20;99.90;;;;;;5070558;28;20305;-80
2023/01/02 08:31:49;;;;;;;;;;;12.20;99.90;;;;;;5071568;28;19909;-81
2023/01/02 08:34:16;;;;;;;;;;;12.10;99.90;;;;;;5072069;28;19908;-81
2023/01/02 08:36:42;;;;;;;;;;;12.20;99.90;;;;;;5071400;28;20414;-81
2023/01/02 08:39:07;;;;;;;;;;;12.20;99.90;;;;;;5075579;28;19931;-82
2023/01/02 08:41:34;;;;;;;;;;;12.20;99.90;;;;;;5074942;28;20358;-80
2023/01/02 08:44:00;;;;;;;;;;;12.30;99.90;;;;;;5074073;28;19908;-81
2023/01/02 08:46:25;;;;;;;;;;;12.20;99.90;;;;;;5075417;28;19916;-81
2023/01/02 08:48:51;;;;;;;;;;;12.30;99.90;;;;;;5075398;28;19915;-81
2023/01/02 08:51:16;;;;;;;;;;;12.40;99.90;;;;;;5074944;28;19909;-82
2023/01/02 08:53:42;;;;;;;;;;;12.30;99.90;;;;;;5073900;28;19940;-81
2023/01/02 08:56:16;;;;;;;;;;;12.40;99.90;;;;;;5075109;28;20310;-80
2023/01/02 08:58:42;;;;;;;;;;;12.40;99.90;;;;;;5065743;28;19952;-82
2023/01/02 09:01:07;;;;;;;;;;;12.40;99.90;;;;;;5069849;28;19915;-81
2023/01/02 09:03:33;;;;;;;;;;;12.40;99.90;;;;;;5070326;28;20408;-81
2023/01/02 09:05:58;;;;;;;;;;;12.40;99.90;;;;;;5070405;28;19909;-81
2023/01/02 09:08:24;;;;;;;;;;;12.40;99.90;;;;;;5070659;28;20282;-81
2023/01/02 09:10:49;;;;;;;;;;;12.40;99.90;;;;;;5080235;28;19956;-82
2023/01/02 09:13:15;;;;;;;;;;;12.40;99.90;;;;;;5053797;28;19912;-81
2023/01/02 09:15:43;;;;;;;;;;;12.40;99.90;;;;;;5054202;28;20424;-82
2023/01/02 09:18:08;;;;;;;;;;;12.30;99.90;;;;;;5073627;28;19913;-81
2023/01/02 09:20:38;;;;;;;;;;;12.30;99.90;;;;;;5061073;28;20282;-82
2023/01/02 09:23:03;;;;;;;;;;;12.30;99.90;;;;;;5060721;28;19971;-85
2023/01/02 09:25:29;;;;;;;;;;;12.30;99.90;;;;;;5061447;28;19908;-84
2023/01/02 09:27:54;;;;;;;;;;;12.40;99.90;;;;;;5059906;28;19909;-84
2023/01/02 09:30:20;;;;;;;;;;;12.50;99.90;;;;;;5059897;28;20271;-84
2023/01/02 09:32:47;;;;;;;;;;;12.50;99.90;;;;;;5064463;28;20042;-84
2023/01/02 09:35:13;;;;;;;;;;;12.50;99.90;;;;;;5078156;28;19909;-84
2023/01/02 09:37:39;;;;;;;;;;;12.60;99.90;;;;;;5078392;28;20355;-85
2023/01/02 09:40:04;;;;;;;;;;;12.60;99.90;;;;;;5078251;28;19916;-83
2023/01/02 09:42:30;;;;;;;;;;;12.60;99.90;;;;;;5090988;22;20016;-85
2023/01/02 09:44:59;;;;;;;;;;;12.60;99.90;;;;;;5056189;28;19932;-83
2023/01/02 09:47:28;;;;;;;;;;;12.50;99.90;;;;;;5073858;28;19908;-86
2023/01/02 09:49:56;;;;;;;;;;;12.50;99.90;;;;;;5056250;28;19912;-85
2023/01/02 09:52:24;;;;;;;;;;;12.60;99.90;;;;;;5069510;28;19988;-86
2023/01/02 09:54:50;;;;;;;;;;;12.50;99.90;;;;;;5036714;28;19909;-83
2023/01/02 09:57:27;;;;;;;;;;;12.50;99.90;;;;;;5055170;28;19916;-84
2023/01/02 09:59:56;;;;;;;;;;;12.40;99.90;;;;;;5037212;28;19909;-84
2023/01/02 10:02:25;;;;;;;;;;;12.30;99.90;;;;;;5036389;28;19913;-83
2023/01/02 10:04:56;;;;;;;;;;;12.30;99.90;;;;;;5036310;28;19954;-83
2023/01/02 10:07:28;;;;;;;;;;;12.40;99.90;;;;;;5036436;28;19909;-83
2023/01/02 10:10:00;;;;;;;;;;;12.50;99.90;;;;;;5054784;28;20015;-84
2023/01/02 10:12:28;;;;;;;;;;;12.50;99.90;;;;;;5036967;28;19909;-84
2023/01/02 10:15:05;;;;;;;;;;;12.40;99.90;;;;;;5055721;28;20393;-82
2023/01/02 10:17:36;;;;;;;;;;;12.40;99.90;;;;;;5053848;28;19908;-82
2023/01/02 10:20:14;;;;;;;;;;;12.40;99.90;;;;;;5036026;28;19916;-82
2023/01/02 10:22:41;;;;;;;;;;;12.40;99.90;;;;;;5035552;28;20285;-81
2023/01/02 10:25:11;;;;;;;;;;;12.40;99.90;;;;;;5053946;28;19909;-82
2023/01/02 10:27:40;;;;;;;;;;;12.50;99.90;;;;;;5035892;28;19909;-82
2023/01/02 10:30:26;;;;;;;;;;;12.50;99.90;;;;;;5053621;28;19984;-82
2023/01/02 10:32:57;;;;;;;;;;;12.40;99.90;;;;;;5033390;28;20086;-82
2023/01/02 10:35:28;;;;;;;;;;;12.50;99.90;;;;;;5045708;28;19917;-81
2023/01/02 10:37:55;;;;;;;;;;;12.50;99.90;;;;;;5035221;28;19917;-82
2023/01/02 10:40:21;;;;;;;;;;;12.40;99.90;;;;;;5035304;28;19919;-82
2023/01/02 10:42:50;;;;;;;;;;;12.30;99.90;;;;;;5052516;28;19939;-82
2023/01/02 10:45:16;;;;;;;;;;;12.30;99.90;;;;;;5052939;28;19913;-82
2023/01/02 10:47:41;;;;;;;;;;;12.30;99.90;;;;;;5034201;28;20354;-81
2023/01/02 10:50:13;;;;;;;;;;;12.30;99.90;;;;;;5052834;28;19909;-81
2023/01/02 10:52:44;;;;;;;;;;;12.50;99.90;;;;;;5052640;28;19920;-82
2023/01/02 10:55:10;;;;;;;;;;;12.50;99.90;;;;;;5052752;28;19959;-81
2023/01/02 10:57:40;;;;;;;;;;;12.50;99.90;;;;;;5052792;28;19909;-81
2023/01/02 11:00:22;;;;;;;;;;;12.60;99.90;;;;;;5034086;28;20285;-82
2023/01/02 11:02:52;;;;;;;;;;;12.60;99.90;;;;;;5052051;28;19974;-82
2023/01/02 11:05:19;;;;;;;;;;;12.60;99.90;;;;;;5034578;28;20290;-82
2023/01/02 11:07:46;;;;;;;;;;;12.60;99.90;;;;;;5052567;28;19916;-81
2023/01/02 11:10:31;;;;;;;;;;;12.60;99.90;;;;;;5052614;28;19908;-82
2023/01/02 11:13:01;;;;;;;;;;;12.70;99.90;;;;;;5051284;28;20314;-82
2023/01/02 11:15:29;;;;;;;;;;;12.70;99.90;;;;;;5052068;28;19970;-82
2023/01/02 11:17:55;;;;;;;;;;;12.70;99.90;;;;;;5052487;28;19909;-83
2023/01/02 11:20:29;;;;;;;;;;;12.60;99.90;;;;;;5034699;28;19912;-82
2023/01/02 11:22:56;;;;;;;;;;;12.60;99.90;;;;;;5052472;28;19913;-82
2023/01/02 11:25:26;;;;;;;;;;;12.50;99.90;;;;;;5034437;28;20524;-82
2023/01/02 11:27:56;;;;;;;;;;;12.50;99.90;;;;;;5052132;28;19989;-81
2023/01/02 11:30:41;;;;;;;;;;;12.50;99.90;;;;;;5034440;28;19976;-81
2023/01/02 11:33:18;;;;;;;;;;;12.50;99.90;;;;;;5051201;28;20008;-82
2023/01/02 11:35:51;;;;;;;;;;;12.60;99.90;;;;;;5052367;28;20293;-82
2023/01/02 11:38:18;;;;;;;;;;;12.60;99.90;;;;;;5052405;28;19909;-82
2023/01/02 11:40:55;;;;;;;;;;;12.60;99.90;;;;;;5034045;28;19913;-83
2023/01/02 11:46:12;;;;;;;;;;;12.60;99.90;;;;;;5052504;28;20380;-82
2023/01/02 11:48:37;;;;;;;;;;;12.60;99.90;;;;;;5052079;28;20401;-81
2023/01/02 11:51:03;;;;;;;;;;;12.70;99.90;;;;;;5053198;28;19909;-81
2023/01/02 11:53:39;;;;;;;;;;;12.70;99.90;;;;;;5035399;28;19908;-82
2023/01/02 11:56:18;;;;;;;;;;;12.60;99.90;;;;;;5035996;28;19916;-82
2023/01/02 11:58:54;;;;;;;;;;;12.70;99.90;;;;;;5068856;28;19923;-81
2023/01/02 12:01:23;;;;;;;;;;;12.80;99.90;;;;;;5053302;28;20019;-81
2023/01/02 12:03:49;;;;;;;;;;;12.90;99.90;;;;;;5053862;28;19916;-82
2023/01/02 12:06:19;;;;;;;;;;;12.90;99.90;;;;;;5053562;28;19998;-83
2023/01/02 12:08:50;;;;;;;;;;;13.00;99.90;;;;;;5035882;28;19973;-81
2023/01/02 12:11:35;;;;;;;;;;;13.00;99.90;;;;;;5036979;28;19909;-82
2023/01/02 12:14:17;;;;;;;;;;;13.10;99.90;;;;;;5057639;28;19909;-81
2023/01/02 12:17:00;;;;;;;;;;;13.20;99.90;;;;;;5057663;28;19916;-82
2023/01/02 12:19:26;;;;;;;;;;;13.10;99.90;;;;;;5057401;28;20263;-81
2023/01/02 12:21:51;;;;;;;;;;;12.90;99.90;;;;;;5056805;28;19919;-81
2023/01/02 12:24:26;;;;;;;;;;;12.90;99.90;;;;;;5056700;28;19909;-81
2023/01/02 12:27:01;;;;;;;;;;;12.90;99.90;;;;;;5056455;28;20428;-81
2023/01/02 12:29:34;;;;;;;;;;;13.00;99.90;;;;;;5039052;28;20378;-82
2023/01/02 12:32:08;;;;;;;;;;;12.90;99.90;;;;;;5055758;28;19909;-82
2023/01/02 12:34:43;;;;;;;;;;;12.80;99.90;;;;;;5055786;28;19913;-81
2023/01/02 12:37:27;;;;;;;;;;;12.70;99.90;;;;;;5037693;28;19908;-81
2023/01/02 12:40:04;;;;;;;;;;;12.80;99.90;;;;;;5037872;28;19909;-82
2023/01/02 12:42:29;;;;;;;;;;;12.70;99.90;;;;;;5037615;28;19951;-82
2023/01/02 12:44:56;;;;;;;;;;;12.90;99.90;;;;;;5037692;28;19909;-81
2023/01/02 12:47:34;;;;;;;;;;;13.20;99.90;;;;;;5056024;28;19909;-83
2023/01/02 12:50:02;;;;;;;;;;;13.30;99.90;;;;;;5037401;28;20001;-81
2023/01/02 12:52:46;;;;;;;;;;;13.30;99.90;;;;;;5037177;28;19959;-82
2023/01/02 12:55:19;;;;;;;;;;;13.30;99.90;;;;;;5037727;28;19908;-82
2023/01/02 12:57:57;;;;;;;;;;;13.20;99.90;;;;;;5070550;28;20001;-81
2023/01/02 13:00:22;;;;;;;;;;;13.30;99.90;;;;;;5055416;28;19962;-81
2023/01/02 13:03:07;;;;;;;;;;;13.20;99.90;;;;;;5054888;28;19917;-82
2023/01/02 13:05:36;;;;;;;;;;;13.20;99.90;;;;;;5055463;28;20035;-82
2023/01/02 13:08:06;;;;;;;;;;;13.20;99.90;;;;;;5037521;28;19909;-82
2023/01/02 13:10:32;;;;;;;;;;;13.20;99.90;;;;;;5037780;28;19916;-82
2023/01/02 13:12:59;;;;;;;;;;;13.10;99.90;;;;;;5055504;28;19909;-81
2023/01/02 13:15:27;;;;;;;;;;;13.00;99.90;;;;;;5055161;28;19909;-82
2023/01/02 13:18:06;;;;;;;;;;;13.00;99.90;;;;;;5037084;28;19999;-82
2023/01/02 13:20:38;;;;;;;;;;;12.90;99.90;;;;;;5070784;28;19913;-81
2023/01/02 13:23:26;;;;;;;;;;;12.90;99.90;;;;;;5053938;28;19916;-81
2023/01/02 13:25:52;;;;;;;;;;;12.70;99.90;;;;;;5037520;28;19908;-82
2023/01/02 13:28:19;;;;;;;;;;;12.60;99.90;;;;;;5055421;28;19916;-81
2023/01/02 13:30:50;;;;;;;;;;;12.60;99.90;;;;;;5037441;28;20007;-81
2023/01/02 13:33:19;;;;;;;;;;;12.60;99.90;;;;;;5037169;28;20397;-81
2023/01/02 13:35:44;;;;;;;;;;;12.60;99.90;;;;;;5055293;28;20442;-82
2023/01/02 13:38:11;;;;;;;;;;;12.60;99.90;;;;;;5055512;28;19951;-81
2023/01/02 13:40:36;;;;;;;;;;;12.60;99.90;;;;;;5055160;28;20427;-81
2023/01/02 13:43:07;;;;;;;;;;;12.60;99.90;;;;;;5036326;28;19920;-81
2023/01/02 13:45:36;;;;;;;;;;;12.60;99.90;;;;;;5036591;28;19909;-81
2023/01/02 13:48:03;;;;;;;;;;;12.70;99.90;;;;;;5054326;28;19909;-81
2023/01/02 13:50:36;;;;;;;;;;;12.60;99.90;;;;;;5054606;28;20321;-81
2023/01/02 13:53:10;;;;;;;;;;;12.70;99.90;;;;;;5054215;28;19908;-81
2023/01/02 13:55:36;;;;;;;;;;;12.70;99.90;;;;;;5036264;28;19909;-81
2023/01/02 13:58:11;;;;;;;;;;;12.60;99.90;;;;;;5036514;28;20393;-82
2023/01/02 14:00:36;;;;;;;;;;;12.70;99.90;;;;;;5035961;28;19909;-81
2023/01/02 14:03:20;;;;;;;;;;;12.70;99.90;;;;;;5035584;28;19912;-81
2023/01/02 14:05:56;;;;;;;;;;;12.70;99.90;;;;;;5054104;28;19909;-81
2023/01/02 14:08:56;;;;;;;;;;;12.70;99.90;;;;;;5054227;28;20390;-81
2023/01/02 14:11:26;;;;;;;;;;;12.70;99.90;;;;;;5036397;28;20073;-81
2023/01/02 14:13:53;;;;;;;;;;;12.60;99.90;;;;;;5036005;28;19909;-81
2023/01/02 14:16:21;;;;;;;;;;;12.40;99.90;;;;;;5053936;28;19909;-81
2023/01/02 14:19:05;;;;;;;;;;;12.40;99.90;;;;;;5054002;28;19909;-81
2023/01/02 14:21:34;;;;;;;;;;;12.40;99.90;;;;;;5035617;28;20362;-81
2023/01/02 14:24:01;;;;;;;;;;;12.30;99.90;;;;;;5053879;28;19908;-81
2023/01/02 14:26:30;;;;;;;;;;;12.30;99.90;;;;;;5053975;28;19979;-81
2023/01/02 14:28:58;;;;;;;;;;;12.30;99.90;;;;;;5036513;28;19948;-81
2023/01/02 14:31:33;;;;;;;;;;;12.20;99.90;;;;;;5054030;28;19971;-81